• METAR


    Deprecated: The each() function is deprecated. This message will be suppressed on further calls in /home/siteworx/flytime.hu/wp-content/plugins/metar/metar.php on line 45

    LHBP Budapest Liszt Ferenc repülőtér METAR

    LHBP 172100Z 12002KT 7000 -SHSN FEW026 BKN040 M05/M07 Q1021 R88/19//95 NOSIG

    QNH légnyomás:1021hpa
    Hőmérséklet/temperature: -5°C
    Harmatpont/Dew Point Temp: -7°C

    LHDC Debreceni repülőtér METAR

    LHDC 172045Z AUTO 02004KT 5000 BR FEW013 OVC036 M05/M06 Q1021

    QNH légnyomás:1021hpa
    Hőmérskélet/temperature: -5°C
    Harmatpont/Dew Point Temp: -6°C

    LHPR Győr-pér repülőtér METAR

    LHPR 172045Z AUTO 29007KT CAVOK M09/M12 Q1022 NOSIG

    QNH légnyomás:1022hpa
    Hőmérskélet/temperature: -9°C
    Harmatpont/Dew Point Temp: -12°C

    lhsm Sármellék repülőtér METAR

    LHSM 172045Z AUTO 29004KT 7000 -SHSN BKN047 M05/M07 Q1022

    QNH légnyomás:1022hpa
    Hőmérskélet/temperature: -5°C
    Harmatpont/Dew Point Temp: -7°C

    lhpp Pécs-pogány repülőtér METAR

    LHPP 171745Z 34003KT 9999 SCT016 BKN083 M04/M06 Q1019

    QNH légnyomás:1019hpa
    Hőmérskélet/temperature: -4°C
    Harmatpont/Dew Point Temp: -6°C

    LHKE Kecskemét repülőtér METAR

    LHKE 172045Z 29002KT 6000 SCT040 M09/M10 Q1021 R12/01//95 NOSIG RMK WHT

    QNH légnyomás:1021hpa
    Hőmérskélet/temperature: -9°C
    Harmatpont/Dew Point Temp: -10°C

    LHSN Szolnok repülőtér METAR

    LHSN 172045Z 02004KT 6000 BKN009 OVC025 M04/M05 Q1021 NOSIG RMK GRN

    QNH légnyomás:1021hpa
    Hőmérskélet/temperature: -4°C
    Harmatpont/Dew Point Temp: -5°C

    LHUD szeged repülőtér METAR

    LHUD 032345Z 35004KT CAVOK 18/13 Q1019

    QNH légnyomás:1019hpa
    Hőmérskélet/temperature: 18°C
    Harmatpont/Dew Point Temp: 13°C

  • TÉRKÉPEK

    Felhőkép

    Széltérkép

    Hőtérkép

    radarkép

    map

    map

  • Műholdképek

    Magyarország műholdkép

    Europa műholdkép

    Europa szinoptikus térkép

  • ELTE ELŐREJELZÉS (2 NAP LHBP)

    2 napos légnyomás előrejelzés Budapest LHBP

    2 napos szél előrejelzés Budapest LHBP

    2 napos termik trigger előrejelzés Budapest LHBP

    2 napos felhőzet előrejelzés Budapest LHBP

    2 napos thermal index profile előrejelzés Budapest LHBP

    2 napos átlag emelés előrejelzés Budapest LHBP

    2 napos felhő alap előrejelzés Budapest LHBP

    2 napos hőmérséklet advekció előrejelzés Budapest LHBP

  • VILLÁMRADAR

  • ELŐREJELZÉS

  • WINDFINDER ELŐREJELZÉS

  • RIASZTÁS - VÉSZJELZÉS

Repülésmeteorológia, aktuális időjárási helyzet és előrejelzés

Repülésmeteorológia, várható időjárás jelentések, előrejelzések és riasztások. METAR, TAF adatok, aktuális időjárás helyzetek és térképek.

A meteorológia kialakulásában és fejlődésében kiemelt szerep jutott a repülésnek, illetve a repülés technikai fejlődésének. A repülésmeteorológia elsődlegesen a repülés biztonságát, másodlagosan a repülés gazdaságosságát hivatott szolgálni. Eleinte a katonai repülőgépeknek, később a polgári repülésnek, ma már a sportrepülő pilótáknak, és a mezőgazdasági pilótáknak is egyaránt szükségük van a naprakész meteorológiai információkra.

Repülésmeteorológia oldalunkon összegyűjtöttük a legnépszerűbb és legjobb időjárás oldalak hivatkozásait, hogy repülés előtt vagy akár közben minden fontos forrást egyszerűen és gyorsan megtalálj. Magyarország várható időjárása, légállapoti diagramok, termik előrejelzés, METAR adatok, vészjelzések és figyelmeztetések. A képernyő szélén közvetlenül pedig pozíciód aktuális időjárási paramétereit is megtalálod.

JOGI NYILATKOZAT

Az oldal használatával a látogató elfogadja az alábbi felhasználási feltételeket:

Az oldalon feltüntetett repülésmeteorológia információkat mindenki csak saját felelősségre használhatja. A feltüntetett külső forrásokból származó információk pontosságáért és tartalmáért, valamint az esetlegesen ebből adódó bármilyen káresemény kapcsán a FLYTIME.HU nem vállal felelősséget!